createdAt,value
2022-08-19T05:29:42.023Z,21.50
2022-08-19T05:34:44.617Z,21.57
2022-08-19T05:39:51.286Z,21.64
2022-08-19T05:44:54.523Z,21.73
2022-08-19T05:49:56.912Z,21.87
2022-08-19T05:54:59.305Z,22.09
2022-08-19T06:00:03.132Z,22.37
2022-08-19T06:05:25.380Z,22.73
2022-08-19T06:10:27.915Z,23.15
2022-08-19T06:15:30.279Z,23.59
2022-08-19T06:20:54.396Z,24.09
2022-08-19T06:25:55.993Z,24.45
2022-08-19T06:30:58.344Z,24.08
2022-08-19T06:36:00.730Z,23.59
2022-08-19T06:41:07.612Z,23.14
2022-08-19T06:46:17.629Z,22.87
2022-08-19T06:51:20.618Z,22.80
2022-08-19T06:56:32.004Z,22.82
2022-08-19T07:01:39.708Z,22.87
2022-08-19T07:06:43.954Z,22.92
2022-08-19T07:11:52.055Z,22.96
2022-08-19T07:16:57.101Z,22.88
2022-08-19T07:22:02.052Z,22.81
2022-08-19T07:27:08.481Z,22.83
2022-08-19T07:32:17.516Z,22.83
2022-08-19T07:37:19.901Z,22.93
2022-08-19T07:42:22.267Z,22.83
2022-08-19T07:47:48.840Z,22.59
2022-08-19T07:52:48.900Z,22.55
2022-08-19T07:57:53.150Z,22.73
2022-08-19T08:02:56.141Z,22.96
2022-08-19T08:08:17.462Z,23.41
2022-08-19T08:13:19.844Z,23.87
2022-08-19T08:18:22.427Z,24.04
2022-08-19T08:23:31.204Z,24.15
2022-08-19T08:28:33.690Z,24.28
2022-08-19T08:33:36.092Z,24.36
2022-08-19T08:38:40.239Z,24.41
2022-08-19T08:43:47.540Z,24.37
2022-08-19T08:48:55.719Z,24.37
2022-08-19T08:53:58.336Z,24.33
2022-08-19T08:59:11.137Z,24.45
2022-08-19T09:04:14.382Z,24.76
2022-08-19T09:09:35.797Z,25.47
2022-08-19T09:14:50.818Z,26.39
2022-08-19T09:20:19.542Z,28.39
2022-08-19T09:25:24.740Z,27.85
2022-08-19T09:30:33.223Z,27.31
2022-08-19T09:35:49.798Z,26.55
2022-08-19T09:40:55.809Z,26.10
2022-08-19T09:45:58.935Z,26.08
2022-08-19T09:51:07.669Z,26.75
2022-08-19T09:56:14.847Z,29.27
2022-08-19T10:01:24.015Z,29.46
2022-08-19T10:06:46.282Z,28.98
2022-08-19T10:11:54.484Z,32.33
2022-08-19T10:16:57.620Z,33.97
2022-08-19T10:22:04.541Z,32.77
2022-08-19T10:27:07.130Z,34.97
2022-08-19T10:32:11.505Z,36.28
2022-08-19T10:37:23.625Z,35.83
2022-08-19T10:42:26.440Z,35.13
2022-08-19T10:47:31.560Z,34.53
2022-08-19T10:52:34.747Z,32.30
2022-08-19T10:58:01.341Z,33.95
2022-08-19T11:03:04.509Z,32.67
2022-08-19T11:08:21.221Z,32.61
2022-08-19T11:13:26.079Z,32.34
2022-08-19T11:18:28.751Z,31.61
2022-08-19T11:23:31.118Z,30.60
2022-08-19T11:28:33.636Z,29.72
2022-08-19T11:33:36.056Z,29.52
2022-08-19T11:38:38.514Z,29.51
2022-08-19T11:43:40.959Z,28.74
2022-08-19T11:48:44.285Z,28.85
2022-08-19T11:53:47.300Z,29.41
2022-08-19T11:58:50.052Z,31.07
2022-08-19T12:03:54.528Z,30.14
2022-08-19T12:08:59.627Z,29.49
2022-08-19T12:14:03.833Z,30.44
2022-08-19T12:19:06.426Z,30.22
2022-08-19T12:24:08.827Z,30.63
2022-08-19T12:29:11.160Z,30.71
2022-08-19T12:34:13.497Z,30.85
2022-08-19T12:39:15.878Z,30.12
2022-08-19T12:44:19.282Z,29.91
2022-08-19T12:49:52.256Z,29.88
2022-08-19T12:54:44.652Z,28.88
2022-08-19T12:59:47.065Z,28.17
2022-08-19T13:04:49.526Z,28.60
2022-08-19T13:09:53.511Z,28.37
2022-08-19T13:14:56.751Z,27.87
2022-08-19T13:19:59.807Z,27.50
2022-08-19T13:25:02.168Z,27.29
2022-08-19T13:30:24.512Z,27.37
2022-08-19T13:35:26.942Z,27.37
2022-08-19T13:40:34.711Z,27.63
2022-08-19T13:45:38.987Z,28.95
2022-08-19T13:50:45.634Z,29.92
2022-08-19T13:55:48.244Z,30.53
2022-08-19T14:00:50.841Z,30.92
2022-08-19T14:05:53.391Z,30.26
2022-08-19T14:10:56.239Z,30.52
2022-08-19T14:15:59.115Z,29.80
2022-08-19T14:21:02.247Z,28.95
2022-08-19T14:26:10.033Z,28.77
2022-08-19T14:31:17.638Z,28.88
2022-08-19T14:36:21.354Z,29.46
2022-08-19T14:41:24.790Z,30.03
2022-08-19T14:46:29.636Z,29.82
2022-08-19T14:51:32.281Z,30.29
2022-08-19T14:56:34.767Z,30.62
2022-08-19T15:01:37.531Z,29.69
2022-08-19T15:06:40.355Z,29.27
2022-08-19T15:11:49.936Z,28.79
2022-08-19T15:16:52.290Z,28.16
2022-08-19T15:21:55.763Z,27.68
2022-08-19T15:26:58.188Z,27.26
2022-08-19T15:32:00.527Z,27.00
2022-08-19T15:37:05.692Z,26.72
2022-08-19T15:42:08.563Z,26.44
2022-08-19T15:47:11.771Z,26.17
2022-08-19T15:52:14.174Z,26.05
2022-08-19T15:57:22.679Z,25.83
2022-08-19T16:02:46.287Z,25.59
2022-08-19T16:07:48.832Z,25.38
2022-08-19T16:12:51.291Z,25.29
2022-08-19T16:17:56.763Z,25.25
2022-08-19T16:23:00.190Z,25.19
2022-08-19T16:28:07.499Z,25.17
2022-08-19T16:33:10.944Z,25.11
2022-08-19T16:38:13.422Z,25.15
2022-08-19T16:43:15.766Z,25.10
2022-08-19T16:48:18.118Z,25.14
2022-08-19T16:53:23.109Z,25.14
2022-08-19T16:58:29.134Z,25.10
2022-08-19T17:03:36.467Z,25.04
2022-08-19T17:08:39.396Z,24.90
2022-08-19T17:13:41.769Z,24.82
2022-08-19T17:18:45.745Z,24.69
2022-08-19T17:23:48.844Z,24.58
2022-08-19T17:28:53.098Z,24.45
2022-08-19T17:33:58.235Z,24.32
2022-08-19T17:39:02.252Z,24.27
2022-08-19T17:44:05.252Z,24.18
2022-08-19T17:49:07.701Z,24.12
2022-08-19T17:54:14.461Z,24.04
2022-08-19T18:04:19.823Z,23.89
2022-08-19T18:09:41.769Z,23.61
2022-08-19T18:14:45.213Z,23.60
2022-08-19T18:19:47.809Z,23.57
2022-08-19T18:24:50.371Z,23.45
2022-08-19T18:29:56.681Z,23.38
2022-08-19T18:35:01.067Z,23.37
2022-08-19T18:40:23.851Z,23.33
2022-08-19T18:45:44.635Z,23.26
2022-08-19T18:50:47.073Z,23.24
2022-08-19T18:55:55.387Z,23.19
2022-08-19T19:00:58.758Z,23.16
2022-08-19T19:06:01.494Z,23.18
2022-08-19T19:11:05.978Z,23.20
2022-08-19T19:16:11.620Z,23.12
2022-08-19T19:21:14.084Z,23.04
2022-08-19T19:26:18.435Z,23.00
2022-08-19T19:31:23.605Z,23.00
2022-08-19T19:36:26.133Z,22.98
2022-08-19T19:41:29.664Z,22.93
2022-08-19T19:46:32.750Z,22.86
2022-08-19T19:51:38.569Z,22.81
2022-08-19T19:56:43.549Z,22.82
